Mahi Mahi — FAC4822 — position and weather

sailwx.info

Track history (hours):
 
Tides and Currents Weather Stations Pressure Air Temp Water Temp Dewpoint Dewpoint Depression Visibility Wind Speed Wind Dir Waves Ship Positions

Mahi Mahi

Last reported at 2017-Oct-15 07:27 UTC. Time now 2017-Nov-25 09:45 UTC.
Position N 47°44' W 003°21'.
Warning: this ship's position is 41 days out of date.

Length 12 m.

Type: Sailing vessel. MMSI: 227290960.

Date/timePositionNaut miles runAvg speedWind from/ knotsBaromVisibWave heightAir tempDewpointWater temp
2017-Oct-15 07:27N 47°44' W 003°21'0 0.0
2017-Oct-14 20:41N 47°44' W 003°21'0 0.0
2017-Oct-14 20:29N 47°44' W 003°21'0 0.0
2017-Oct-14 19:59N 47°44' W 003°21'0 0.0
2017-Oct-14 19:26N 47°44' W 003°21'0 0.0
2017-Oct-14 18:58N 47°44' W 003°21'0 0.0
2017-Oct-14 18:25N 47°44' W 003°21'0 0.0
2017-Oct-14 17:52N 47°44' W 003°21'0 0.0
2017-Oct-14 17:28N 47°44' W 003°21'0 0.0
2017-Oct-14 16:58N 47°44' W 003°21'0 0.0
2017-Oct-14 16:28N 47°44' W 003°21'0 0.0
2017-Oct-14 15:58N 47°44' W 003°21'0 0.0
2017-Oct-14 15:25N 47°44' W 003°21'0 0.0
2017-Oct-14 15:00N 47°44' W 003°21'0 0.0
2017-Oct-13 07:23N 47°44' W 003°21'  
2017-Oct-10 14:37N 47°44' W 003°21'2 3.2
2017-Oct-10 14:00N 47°42' W 003°23'2 4.7
2017-Oct-10 13:30N 47°40' W 003°25'2 3.6
2017-Oct-10 12:58N 47°39' W 003°27'0 0.0
2017-Oct-10 07:24N 47°39' W 003°27'0 0.0
2017-Oct-09 13:29N 47°39' W 003°27'0 0.1
2017-Oct-09 12:58N 47°39' W 003°27'1 2.5
2017-Oct-09 12:30N 47°39' W 003°25'2 4.7
2017-Oct-09 12:00N 47°37' W 003°23'2 4.9
2017-Oct-09 11:30N 47°35' W 003°20'2 4.8
2017-Oct-09 11:00N 47°34' W 003°18'2 5.0
2017-Oct-09 10:30N 47°32' W 003°15'3 5.0
2017-Oct-09 10:00N 47°30' W 003°13'3 5.4
2017-Oct-09 09:30N 47°28' W 003°10'2 4.6
2017-Oct-09 09:00N 47°27' W 003°07'3 5.9
2017-Oct-09 08:30N 47°27' W 003°03'3 5.8
2017-Oct-09 08:00N 47°29' W 003°06'0 0.5
2017-Oct-09 07:28N 47°29' W 003°06'0 0.0
2017-Oct-09 06:51N 47°29' W 003°06'0 0.0
2017-Oct-08 12:28N 47°29' W 003°06'0 0.0
2017-Oct-08 11:58N 47°29' W 003°06'0 0.0
2017-Oct-08 11:28N 47°29' W 003°06'0 0.0
2017-Oct-08 10:58N 47°29' W 003°06'0 0.0
2017-Oct-08 07:33N 47°29' W 003°06'0 0.0
2017-Oct-08 07:30N 47°29' W 003°06'0 0.0
2017-Oct-08 07:00N 47°29' W 003°06'0 0.0
2017-Oct-06 20:36N 47°29' W 003°06'0 0.0
2017-Oct-06 16:21N 47°29' W 003°06'0 0.0
2017-Oct-06 16:00N 47°29' W 003°06'0 0.9
2017-Oct-06 15:30N 47°29' W 003°05'2 4.1
2017-Oct-06 15:00N 47°28' W 003°03'2 3.4
2017-Oct-06 14:31N 47°27' W 003°01'2 4.9
2017-Oct-06 14:00N 47°25' W 002°58'2 4.4
2017-Oct-06 13:31N 47°24' W 002°56'1 1.3
2017-Oct-06 13:00N 47°23' W 002°57'0 0.0
2017-Oct-06 12:25N 47°23' W 002°57'0 0.0
2017-Oct-06 11:55N 47°23' W 002°57'0 0.0
2017-Oct-06 11:28N 47°23' W 002°57'0 0.0
2017-Oct-06 10:58N 47°23' W 002°56'0 0.8
2017-Oct-06 10:30N 47°23' W 002°56'3 5.7
2017-Oct-06 10:00N 47°23' W 002°52'3 6.5
2017-Oct-06 09:28N 47°22' W 002°47'3 6.5
2017-Oct-06 09:00N 47°22' W 002°42'4 6.2
2017-Oct-06 08:19N 47°21' W 002°36'2 5.1
2017-Oct-06 08:00N 47°21' W 002°34'  
Track history (hours):
 
Tides and Currents Weather Stations Pressure Air Temp Water Temp Dewpoint Dewpoint Depression Visibility Wind Speed Wind Dir Waves Ship Positions

Mahi Mahi

Last reported at 2017-Oct-15 07:27 UTC. Time now 2017-Nov-25 09:45 UTC.
Position N 47°44' W 003°21'.
Warning: this ship's position is 41 days out of date.

Length 12 m.

Type: Sailing vessel. MMSI: 227290960.

Date/timePositionNaut miles runAvg speedWind from/ knotsBaromVisibWave heightAir tempDewpointWater temp
2017-Oct-15 07:27N 47°44' W 003°21'0 0.0
2017-Oct-14 20:41N 47°44' W 003°21'0 0.0
2017-Oct-14 20:29N 47°44' W 003°21'0 0.0
2017-Oct-14 19:59N 47°44' W 003°21'0 0.0
2017-Oct-14 19:26N 47°44' W 003°21'0 0.0
2017-Oct-14 18:58N 47°44' W 003°21'0 0.0
2017-Oct-14 18:25N 47°44' W 003°21'0 0.0
2017-Oct-14 17:52N 47°44' W 003°21'0 0.0
2017-Oct-14 17:28N 47°44' W 003°21'0 0.0
2017-Oct-14 16:58N 47°44' W 003°21'0 0.0
2017-Oct-14 16:28N 47°44' W 003°21'0 0.0
2017-Oct-14 15:58N 47°44' W 003°21'0 0.0
2017-Oct-14 15:25N 47°44' W 003°21'0 0.0
2017-Oct-14 15:00N 47°44' W 003°21'0 0.0
2017-Oct-13 07:23N 47°44' W 003°21'  
2017-Oct-10 14:37N 47°44' W 003°21'2 3.2
2017-Oct-10 14:00N 47°42' W 003°23'2 4.7
2017-Oct-10 13:30N 47°40' W 003°25'2 3.6
2017-Oct-10 12:58N 47°39' W 003°27'0 0.0
2017-Oct-10 07:24N 47°39' W 003°27'0 0.0
2017-Oct-09 13:29N 47°39' W 003°27'0 0.1
2017-Oct-09 12:58N 47°39' W 003°27'1 2.5
2017-Oct-09 12:30N 47°39' W 003°25'2 4.7
2017-Oct-09 12:00N 47°37' W 003°23'2 4.9
2017-Oct-09 11:30N 47°35' W 003°20'2 4.8
2017-Oct-09 11:00N 47°34' W 003°18'2 5.0
2017-Oct-09 10:30N 47°32' W 003°15'3 5.0
2017-Oct-09 10:00N 47°30' W 003°13'3 5.4
2017-Oct-09 09:30N 47°28' W 003°10'2 4.6
2017-Oct-09 09:00N 47°27' W 003°07'3 5.9
2017-Oct-09 08:30N 47°27' W 003°03'3 5.8
2017-Oct-09 08:00N 47°29' W 003°06'0 0.5
2017-Oct-09 07:28N 47°29' W 003°06'0 0.0
2017-Oct-09 06:51N 47°29' W 003°06'0 0.0
2017-Oct-08 12:28N 47°29' W 003°06'0 0.0
2017-Oct-08 11:58N 47°29' W 003°06'0 0.0
2017-Oct-08 11:28N 47°29' W 003°06'0 0.0
2017-Oct-08 10:58N 47°29' W 003°06'0 0.0
2017-Oct-08 07:33N 47°29' W 003°06'0 0.0
2017-Oct-08 07:30N 47°29' W 003°06'0 0.0
2017-Oct-08 07:00N 47°29' W 003°06'0 0.0
2017-Oct-06 20:36N 47°29' W 003°06'0 0.0
2017-Oct-06 16:21N 47°29' W 003°06'0 0.0
2017-Oct-06 16:00N 47°29' W 003°06'0 0.9
2017-Oct-06 15:30N 47°29' W 003°05'2 4.1
2017-Oct-06 15:00N 47°28' W 003°03'2 3.4
2017-Oct-06 14:31N 47°27' W 003°01'2 4.9
2017-Oct-06 14:00N 47°25' W 002°58'2 4.4
2017-Oct-06 13:31N 47°24' W 002°56'1 1.3
2017-Oct-06 13:00N 47°23' W 002°57'0 0.0
2017-Oct-06 12:25N 47°23' W 002°57'0 0.0
2017-Oct-06 11:55N 47°23' W 002°57'0 0.0
2017-Oct-06 11:28N 47°23' W 002°57'0 0.0
2017-Oct-06 10:58N 47°23' W 002°56'0 0.8
2017-Oct-06 10:30N 47°23' W 002°56'3 5.7
2017-Oct-06 10:00N 47°23' W 002°52'3 6.5
2017-Oct-06 09:28N 47°22' W 002°47'3 6.5
2017-Oct-06 09:00N 47°22' W 002°42'4 6.2
2017-Oct-06 08:19N 47°21' W 002°36'2 5.1
2017-Oct-06 08:00N 47°21' W 002°34'  

Dump ship's entire track history